Time;durP1;ratioP1;P1;durP2;ratioP2;P2;SDS_P1;SDS_P2;PMS_P1;PMS_P2;Temp;Humidity;BMP_temperature;BMP_pressure;BME280_temperature;BME280_humidity;BME280_pressure;Samples;Min_cycle;Max_cycle;Signal;HPM_P1;HPM_P2
2021/08/23 00:01:31;;;;;;;4.28;2.63;;;;;;;;;;5052078;28;20043;-42
2021/08/23 00:03:57;;;;;;;5.22;2.60;;;;;;;;;;5052146;28;20028;-41
2021/08/23 00:06:22;;;;;;;4.68;3.15;;;;;;;;;;5052354;28;20028;-41
2021/08/23 00:08:47;;;;;;;8.52;3.22;;;;;;;;;;5052460;28;20496;-42
2021/08/23 00:11:15;;;;;;;10.43;3.30;;;;;;;;;;5052166;28;20037;-42
2021/08/23 00:13:40;;;;;;;6.53;3.53;;;;;;;;;;5052056;28;20013;-42
2021/08/23 00:16:06;;;;;;;3.80;3.10;;;;;;;;;;5052566;28;20557;-42
2021/08/23 00:18:31;;;;;;;4.32;3.05;;;;;;;;;;5054873;28;20104;-42
2021/08/23 00:21:02;;;;;;;4.10;3.13;;;;;;;;;;5056415;28;20029;-42
2021/08/23 00:23:34;;;;;;;5.47;3.65;;;;;;;;;;5055902;28;20119;-42
2021/08/23 00:26:00;;;;;;;4.57;3.00;;;;;;;;;;5056263;28;20115;-42
2021/08/23 00:28:25;;;;;;;6.57;3.92;;;;;;;;;;5055890;28;20566;-42
2021/08/23 00:30:50;;;;;;;5.15;3.03;;;;;;;;;;5055007;28;20032;-42
2021/08/23 00:33:16;;;;;;;6.28;2.92;;;;;;;;;;5056207;28;20020;-41
2021/08/23 00:35:42;;;;;;;5.82;2.60;;;;;;;;;;5055634;28;20025;-42
2021/08/23 00:38:08;;;;;;;7.65;3.22;;;;;;;;;;5054492;28;20021;-42
2021/08/23 00:40:33;;;;;;;3.53;3.10;;;;;;;;;;5055673;28;20025;-42
2021/08/23 00:42:59;;;;;;;6.00;3.10;;;;;;;;;;5055569;28;20044;-42
2021/08/23 00:45:25;;;;;;;4.00;2.60;;;;;;;;;;5055510;28;20515;-42
2021/08/23 00:47:51;;;;;;;7.93;3.72;;;;;;;;;;5055929;28;20034;-42
2021/08/23 00:50:16;;;;;;;5.50;3.35;;;;;;;;;;5055442;28;20044;-42
2021/08/23 00:52:42;;;;;;;11.07;5.18;;;;;;;;;;5055462;28;20013;-42
2021/08/23 00:55:07;;;;;;;6.60;3.15;;;;;;;;;;5055756;28;20024;-42
2021/08/23 00:57:33;;;;;;;6.75;3.53;;;;;;;;;;5055339;28;20047;-42
2021/08/23 00:59:59;;;;;;;5.60;3.10;;;;;;;;;;5054170;28;20503;-41
2021/08/23 01:02:43;;;;;;;9.82;3.13;;;;;;;;;;5055228;28;20024;-42
2021/08/23 01:05:23;;;;;;;6.72;3.28;;;;;;;;;;5053881;28;20047;-41
2021/08/23 01:07:49;;;;;;;3.67;2.92;;;;;;;;;;5055584;28;20061;-41
2021/08/23 01:10:16;;;;;;;6.95;3.72;;;;;;;;;;5055490;28;20051;-42
2021/08/23 01:12:42;;;;;;;10.07;4.25;;;;;;;;;;5055308;28;20043;-41
2021/08/23 01:15:08;;;;;;;5.43;3.30;;;;;;;;;;5055045;28;20024;-47
2021/08/23 01:17:33;;;;;;;6.38;3.25;;;;;;;;;;5053767;28;20025;-41
2021/08/23 01:20:00;;;;;;;5.88;3.53;;;;;;;;;;5037108;28;20016;-42
2021/08/23 01:22:27;;;;;;;5.70;3.42;;;;;;;;;;5054979;28;20078;-41
2021/08/23 01:24:53;;;;;;;4.85;3.67;;;;;;;;;;5053560;28;20385;-41
2021/08/23 01:27:19;;;;;;;7.93;3.72;;;;;;;;;;5054893;28;20119;-41
2021/08/23 01:29:53;;;;;;;7.15;3.33;;;;;;;;;;5054204;28;20371;-42
2021/08/23 01:32:20;;;;;;;3.63;3.22;;;;;;;;;;5054841;28;20025;-42
2021/08/23 01:34:45;;;;;;;4.32;2.90;;;;;;;;;;5054924;28;20049;-41
2021/08/23 01:37:16;;;;;;;7.65;3.75;;;;;;;;;;5054774;28;20036;-41
2021/08/23 01:39:41;;;;;;;7.82;3.75;;;;;;;;;;5054859;28;20052;-42
2021/08/23 01:42:07;;;;;;;4.85;3.17;;;;;;;;;;5053357;28;20467;-41
2021/08/23 01:44:32;;;;;;;6.45;2.95;;;;;;;;;;5053089;28;20045;-42
2021/08/23 01:46:58;;;;;;;4.68;2.75;;;;;;;;;;5054805;28;20028;-41
2021/08/23 01:49:23;;;;;;;3.17;2.88;;;;;;;;;;5053156;28;20025;-42
2021/08/23 01:51:48;;;;;;;3.47;3.03;;;;;;;;;;5054520;28;20021;-41
2021/08/23 01:54:14;;;;;;;4.63;2.85;;;;;;;;;;5054556;28;20108;-41
2021/08/23 01:56:39;;;;;;;4.15;2.58;;;;;;;;;;5054289;28;20031;-41
2021/08/23 01:59:04;;;;;;;3.40;2.30;;;;;;;;;;5054332;28;20021;-41
2021/08/23 02:01:30;;;;;;;6.90;4.32;;;;;;;;;;5054193;28;20064;-42
2021/08/23 02:03:56;;;;;;;3.40;2.25;;;;;;;;;;5054150;28;20082;-42
2021/08/23 02:06:22;;;;;;;2.67;2.13;;;;;;;;;;5053299;28;20107;-42
2021/08/23 02:08:47;;;;;;;3.17;1.77;;;;;;;;;;5052842;28;20431;-41
2021/08/23 02:11:12;;;;;;;2.80;2.33;;;;;;;;;;5054148;28;20025;-41
2021/08/23 02:13:38;;;;;;;3.45;1.98;;;;;;;;;;5052646;28;20403;-41
2021/08/23 02:16:03;;;;;;;3.33;2.10;;;;;;;;;;5053921;28;20024;-41
2021/08/23 02:18:29;;;;;;;2.97;1.77;;;;;;;;;;5053905;28;20028;-42
2021/08/23 02:20:54;;;;;;;2.72;1.90;;;;;;;;;;5054237;28;20013;-41
2021/08/23 02:23:19;;;;;;;3.45;1.42;;;;;;;;;;5053789;28;20376;-41
2021/08/23 02:25:45;;;;;;;2.03;1.65;;;;;;;;;;5053726;28;20033;-41
2021/08/23 02:28:11;;;;;;;4.25;1.30;;;;;;;;;;5053755;28;20044;-41
2021/08/23 02:30:36;;;;;;;1.83;1.55;;;;;;;;;;5053568;28;20021;-41
2021/08/23 02:33:02;;;;;;;1.55;1.45;;;;;;;;;;5053900;28;20029;-42
2021/08/23 02:35:28;;;;;;;2.03;1.42;;;;;;;;;;5053528;28;20422;-42
2021/08/23 02:37:53;;;;;;;1.70;1.25;;;;;;;;;;5053453;28;20029;-41
2021/08/23 02:40:18;;;;;;;1.30;1.20;;;;;;;;;;5053779;28;20055;-42
2021/08/23 02:42:44;;;;;;;1.95;1.35;;;;;;;;;;5053522;28;20479;-42
2021/08/23 02:45:09;;;;;;;2.13;1.42;;;;;;;;;;5053326;28;20575;-42
2021/08/23 02:47:36;;;;;;;1.13;0.73;;;;;;;;;;5053612;28;20503;-42
2021/08/23 02:50:05;;;;;;;2.25;1.25;;;;;;;;;;5053375;28;20049;-41
2021/08/23 02:52:30;;;;;;;4.72;1.33;;;;;;;;;;5051842;28;20061;-42
2021/08/23 02:54:56;;;;;;;0.90;0.60;;;;;;;;;;5053200;28;20032;-42
2021/08/23 02:57:21;;;;;;;1.55;1.15;;;;;;;;;;5035360;28;20032;-41
2021/08/23 02:59:46;;;;;;;1.92;1.15;;;;;;;;;;5051786;28;20020;-41
2021/08/23 03:02:12;;;;;;;1.38;1.15;;;;;;;;;;5053194;28;20139;-41
2021/08/23 03:04:37;;;;;;;1.80;1.02;;;;;;;;;;5052793;28;20056;-41
2021/08/23 03:07:03;;;;;;;1.33;1.17;;;;;;;;;;5053238;28;20064;-41
2021/08/23 03:09:28;;;;;;;3.05;1.10;;;;;;;;;;5052996;28;20021;-42
2021/08/23 03:11:53;;;;;;;1.83;1.30;;;;;;;;;;5052899;28;20069;-42
2021/08/23 03:14:19;;;;;;;1.27;0.90;;;;;;;;;;5052938;28;20013;-41
2021/08/23 03:16:44;;;;;;;1.00;0.90;;;;;;;;;;5051450;28;20044;-41
2021/08/23 03:19:10;;;;;;;4.00;1.33;;;;;;;;;;5052780;28;20024;-42
2021/08/23 03:21:35;;;;;;;5.88;1.63;;;;;;;;;;5034874;28;20116;-43
2021/08/23 03:24:00;;;;;;;1.30;1.20;;;;;;;;;;5052645;28;20017;-41
2021/08/23 03:26:26;;;;;;;3.95;1.55;;;;;;;;;;5052570;28;20039;-42
2021/08/23 03:28:52;;;;;;;2.03;1.15;;;;;;;;;;5052636;28;20035;-41
2021/08/23 03:31:17;;;;;;;2.65;1.10;;;;;;;;;;5052933;28;20031;-41
2021/08/23 03:33:43;;;;;;;1.08;0.70;;;;;;;;;;5052730;28;20025;-43
2021/08/23 03:36:09;;;;;;;2.03;1.25;;;;;;;;;;5052848;28;20376;-41
2021/08/23 03:38:34;;;;;;;1.42;1.00;;;;;;;;;;5052712;28;20024;-41
2021/08/23 03:41:00;;;;;;;1.83;1.20;;;;;;;;;;5052419;28;20547;-42
2021/08/23 03:43:25;;;;;;;2.70;1.70;;;;;;;;;;5050892;28;20044;-41
2021/08/23 03:45:50;;;;;;;2.65;1.55;;;;;;;;;;5052462;28;20557;-41
2021/08/23 03:48:16;;;;;;;2.40;1.38;;;;;;;;;;5052392;28;20460;-41
2021/08/23 03:50:41;;;;;;;3.83;1.00;;;;;;;;;;5050929;28;20119;-41
2021/08/23 03:53:07;;;;;;;1.48;1.15;;;;;;;;;;5050789;28;20039;-41
2021/08/23 03:55:32;;;;;;;1.83;1.17;;;;;;;;;;5051274;28;20045;-41
2021/08/23 03:57:58;;;;;;;3.55;1.20;;;;;;;;;;5052386;28;20052;-42
2021/08/23 04:00:23;;;;;;;1.70;1.20;;;;;;;;;;5051068;28;20458;-42
2021/08/23 04:02:48;;;;;;;2.33;1.27;;;;;;;;;;5050915;28;20025;-42
2021/08/23 04:05:14;;;;;;;1.27;0.82;;;;;;;;;;5052152;28;20542;-42
2021/08/23 04:07:40;;;;;;;1.60;1.20;;;;;;;;;;5052189;28;20021;-41
2021/08/23 04:10:06;;;;;;;1.10;0.80;;;;;;;;;;5051961;28;20044;-41
2021/08/23 04:12:31;;;;;;;3.20;1.50;;;;;;;;;;5052143;28;20024;-41
2021/08/23 04:14:58;;;;;;;2.88;1.30;;;;;;;;;;5052140;28;20033;-42
2021/08/23 04:17:24;;;;;;;1.58;0.90;;;;;;;;;;5052350;28;20413;-41
2021/08/23 04:19:50;;;;;;;1.90;1.08;;;;;;;;;;5052155;28;20029;-42
2021/08/23 04:22:15;;;;;;;1.65;1.15;;;;;;;;;;5050866;28;20111;-42
2021/08/23 04:24:40;;;;;;;0.95;0.85;;;;;;;;;;5051858;28;20041;-42
2021/08/23 04:27:06;;;;;;;5.85;1.13;;;;;;;;;;5051979;28;20013;-42
2021/08/23 04:29:32;;;;;;;2.05;0.88;;;;;;;;;;5051914;28;20068;-41
2021/08/23 04:31:57;;;;;;;1.27;0.90;;;;;;;;;;5050741;28;20028;-41
2021/08/23 04:34:23;;;;;;;2.25;0.85;;;;;;;;;;5051913;28;20033;-42
2021/08/23 04:36:48;;;;;;;1.67;0.88;;;;;;;;;;5051895;28;20479;-42
2021/08/23 04:39:13;;;;;;;1.13;0.70;;;;;;;;;;5052062;28;20033;-42
2021/08/23 04:41:40;;;;;;;0.57;0.45;;;;;;;;;;5052125;28;20380;-41
2021/08/23 04:44:06;;;;;;;1.15;0.73;;;;;;;;;;5051666;28;20072;-42
2021/08/23 04:46:32;;;;;;;1.02;0.75;;;;;;;;;;5050437;28;20033;-41
2021/08/23 04:48:57;;;;;;;1.15;0.52;;;;;;;;;;5051864;28;20025;-42
2021/08/23 04:51:23;;;;;;;1.60;1.42;;;;;;;;;;5051804;28;20025;-41
2021/08/23 04:53:48;;;;;;;0.60;0.60;;;;;;;;;;5051806;28;20442;-42
2021/08/23 04:56:14;;;;;;;1.38;0.82;;;;;;;;;;5052084;28;20460;-41
2021/08/23 04:58:40;;;;;;;2.67;0.55;;;;;;;;;;5051901;28;20437;-41
2021/08/23 05:01:05;;;;;;;1.45;0.98;;;;;;;;;;5051741;28;20100;-42
2021/08/23 05:03:30;;;;;;;0.55;0.40;;;;;;;;;;5052697;28;20071;-41
2021/08/23 05:05:56;;;;;;;0.60;0.40;;;;;;;;;;5055513;28;20486;-42
2021/08/23 05:08:21;;;;;;;1.23;0.57;;;;;;;;;;5055367;28;20400;-42
2021/08/23 05:10:46;;;;;;;0.73;0.38;;;;;;;;;;5055211;28;20021;-41
2021/08/23 05:13:12;;;;;;;0.98;0.55;;;;;;;;;;5055430;28;20025;-42
2021/08/23 05:15:38;;;;;;;0.47;0.35;;;;;;;;;;5055018;28;20107;-42
2021/08/23 05:18:03;;;;;;;0.85;0.60;;;;;;;;;;5055385;28;20044;-41
2021/08/23 05:20:28;;;;;;;0.60;0.32;;;;;;;;;;5055286;28;20044;-42
2021/08/23 05:22:56;;;;;;;1.98;0.70;;;;;;;;;;5055241;28;20078;-42
2021/08/23 05:25:21;;;;;;;1.70;0.43;;;;;;;;;;5054939;28;20457;-41
2021/08/23 05:27:46;;;;;;;1.23;0.63;;;;;;;;;;5054844;28;20032;-41
2021/08/23 05:30:12;;;;;;;1.52;1.10;;;;;;;;;;5053595;28;20031;-41
2021/08/23 05:32:38;;;;;;;3.92;0.93;;;;;;;;;;5054806;28;20533;-41
2021/08/23 05:35:03;;;;;;;2.53;0.47;;;;;;;;;;5053401;28;20025;-40
2021/08/23 05:37:29;;;;;;;4.40;0.50;;;;;;;;;;5054748;28;20486;-41
2021/08/23 05:39:54;;;;;;;5.28;0.80;;;;;;;;;;5054401;28;20063;-43
2021/08/23 05:42:20;;;;;;;1.73;0.60;;;;;;;;;;5053339;28;20064;-41
2021/08/23 05:44:45;;;;;;;2.63;0.55;;;;;;;;;;5052689;28;20059;-41
2021/08/23 05:47:11;;;;;;;1.50;0.55;;;;;;;;;;5054628;28;20102;-41
2021/08/23 05:49:36;;;;;;;4.32;0.60;;;;;;;;;;5053221;28;20541;-45
2021/08/23 05:52:02;;;;;;;1.50;0.80;;;;;;;;;;5054640;28;20025;-41
2021/08/23 05:54:29;;;;;;;1.50;0.57;;;;;;;;;;5054545;28;20029;-41
2021/08/23 05:56:56;;;;;;;0.73;0.30;;;;;;;;;;5054388;28;20083;-41
2021/08/23 05:59:22;;;;;;;2.22;0.40;;;;;;;;;;5053110;28;20013;-41
2021/08/23 06:01:54;;;;;;;0.40;0.40;;;;;;;;;;5054222;28;20075;-41
2021/08/23 06:04:20;;;;;;;5.22;0.98;;;;;;;;;;5054095;28;20025;-41
2021/08/23 06:06:46;;;;;;;1.95;0.70;;;;;;;;;;5053177;28;20917;-40
2021/08/23 06:09:12;;;;;;;0.68;0.45;;;;;;;;;;5054232;28;20017;-42
2021/08/23 06:11:38;;;;;;;0.93;0.63;;;;;;;;;;5052688;28;20036;-41
2021/08/23 06:14:03;;;;;;;1.02;0.50;;;;;;;;;;5053653;28;20036;-47
2021/08/23 06:16:29;;;;;;;0.52;0.30;;;;;;;;;;5053131;28;20021;-41
2021/08/23 06:18:54;;;;;;;1.08;0.60;;;;;;;;;;5053649;28;20036;-41
2021/08/23 06:21:20;;;;;;;0.32;0.30;;;;;;;;;;5052755;28;20052;-41
2021/08/23 06:23:45;;;;;;;2.00;1.10;;;;;;;;;;5052531;28;20079;-41
2021/08/23 06:26:11;;;;;;;0.63;0.45;;;;;;;;;;5035809;28;20391;-40
2021/08/23 06:28:36;;;;;;;0.20;0.20;;;;;;;;;;5053744;28;20379;-42
2021/08/23 06:31:01;;;;;;;1.27;0.77;;;;;;;;;;5053767;28;20021;-42
2021/08/23 06:33:28;;;;;;;1.00;0.50;;;;;;;;;;5053498;28;20078;-41
2021/08/23 06:35:53;;;;;;;3.10;0.55;;;;;;;;;;5053693;28;20371;-41
2021/08/23 06:38:18;;;;;;;0.25;0.20;;;;;;;;;;5053598;28;20083;-42
2021/08/23 06:40:44;;;;;;;1.50;0.63;;;;;;;;;;5052192;28;20444;-41
2021/08/23 06:43:09;;;;;;;2.35;0.50;;;;;;;;;;5053252;28;20041;-42
2021/08/23 06:45:35;;;;;;;0.57;0.50;;;;;;;;;;5053345;28;20044;-41
2021/08/23 06:48:00;;;;;;;0.10;0.10;;;;;;;;;;5053505;28;20021;-41
2021/08/23 06:50:26;;;;;;;0.20;0.20;;;;;;;;;;5053663;28;20486;-41
2021/08/23 06:52:51;;;;;;;0.75;0.40;;;;;;;;;;5053192;28;20025;-41
2021/08/23 06:58:23;;;;;;;2.08;0.50;;;;;;;;;;5053448;28;20033;-41
2021/08/23 07:00:49;;;;;;;2.33;0.93;;;;;;;;;;5053365;28;20084;-41
2021/08/23 07:03:14;;;;;;;1.42;0.80;;;;;;;;;;5053390;28;20024;-41
2021/08/23 07:05:40;;;;;;;2.80;0.82;;;;;;;;;;5053146;28;20115;-42
2021/08/23 07:08:06;;;;;;;1.95;0.43;;;;;;;;;;5053029;28;20499;-42
2021/08/23 07:10:33;;;;;;;2.70;0.52;;;;;;;;;;5053157;28;20017;-41
2021/08/23 07:12:58;;;;;;;3.22;0.70;;;;;;;;;;5052986;28;20130;-41
2021/08/23 07:15:24;;;;;;;2.70;0.60;;;;;;;;;;5053182;28;20052;-41
2021/08/23 07:17:49;;;;;;;2.28;0.77;;;;;;;;;;5052782;28;20029;-41
2021/08/23 07:20:15;;;;;;;2.25;0.70;;;;;;;;;;5052814;28;20025;-42
2021/08/23 07:22:41;;;;;;;3.55;0.50;;;;;;;;;;5052647;28;20107;-41
2021/08/23 07:25:07;;;;;;;3.30;0.40;;;;;;;;;;5051537;28;20120;-42
2021/08/23 07:27:32;;;;;;;2.63;0.60;;;;;;;;;;5052041;28;20104;-41
2021/08/23 07:29:58;;;;;;;1.15;0.77;;;;;;;;;;5051348;28;20020;-41
2021/08/23 07:32:24;;;;;;;3.28;0.60;;;;;;;;;;5052947;28;20021;-42
2021/08/23 07:34:49;;;;;;;0.50;0.40;;;;;;;;;;5052863;28;20068;-42
2021/08/23 07:37:15;;;;;;;2.75;0.45;;;;;;;;;;5034651;28;20032;-42
2021/08/23 07:39:41;;;;;;;0.98;0.50;;;;;;;;;;5052491;28;20411;-41
2021/08/23 07:42:07;;;;;;;3.08;0.55;;;;;;;;;;5052452;28;20021;-42
2021/08/23 07:44:32;;;;;;;1.55;0.75;;;;;;;;;;5050900;28;20053;-41
2021/08/23 07:46:59;;;;;;;1.95;0.40;;;;;;;;;;5051218;28;20053;-41
2021/08/23 07:49:24;;;;;;;2.47;0.30;;;;;;;;;;5052695;28;20036;-41
2021/08/23 07:51:49;;;;;;;0.63;0.40;;;;;;;;;;5052310;28;20483;-41
2021/08/23 07:54:17;;;;;;;2.28;0.85;;;;;;;;;;5052195;28;20013;-41
2021/08/23 07:56:42;;;;;;;1.25;0.47;;;;;;;;;;5052530;28;20171;-41
2021/08/23 07:59:08;;;;;;;2.88;0.70;;;;;;;;;;5051000;28;20019;-41
2021/08/23 08:01:33;;;;;;;1.83;0.75;;;;;;;;;;5052473;28;20057;-41
2021/08/23 08:03:59;;;;;;;1.05;0.55;;;;;;;;;;5052361;28;20087;-41
2021/08/23 08:06:24;;;;;;;1.05;0.38;;;;;;;;;;5052637;28;20391;-41
2021/08/23 08:08:50;;;;;;;1.15;0.63;;;;;;;;;;5052225;28;20020;-41
2021/08/23 08:11:15;;;;;;;0.80;0.55;;;;;;;;;;5052343;28;20036;-41
2021/08/23 08:13:42;;;;;;;1.05;0.40;;;;;;;;;;5052263;28;20017;-41
2021/08/23 08:16:07;;;;;;;0.52;0.40;;;;;;;;;;5052229;28;20123;-41
2021/08/23 08:18:33;;;;;;;0.88;0.40;;;;;;;;;;5052118;28;20094;-41
2021/08/23 08:20:58;;;;;;;1.38;0.50;;;;;;;;;;5052268;28;20155;-41
2021/08/23 08:23:23;;;;;;;0.73;0.38;;;;;;;;;;5052275;28;20371;-41
2021/08/23 08:25:49;;;;;;;0.95;0.40;;;;;;;;;;5051845;28;20495;-40
2021/08/23 08:28:14;;;;;;;0.93;0.50;;;;;;;;;;5052089;28;20024;-41
2021/08/23 08:30:40;;;;;;;0.73;0.38;;;;;;;;;;5051979;28;20029;-41
2021/08/23 08:33:05;;;;;;;4.28;0.73;;;;;;;;;;5050690;28;20023;-41
2021/08/23 08:35:32;;;;;;;2.40;0.50;;;;;;;;;;5051918;28;20502;-41
2021/08/23 08:37:57;;;;;;;2.13;0.40;;;;;;;;;;5053606;28;20070;-41
2021/08/23 08:40:24;;;;;;;1.77;0.80;;;;;;;;;;5054551;28;20033;-41
2021/08/23 08:42:50;;;;;;;0.32;0.30;;;;;;;;;;5055554;28;20071;-42
2021/08/23 08:45:15;;;;;;;1.30;0.40;;;;;;;;;;5055790;28;20096;-42
2021/08/23 08:47:41;;;;;;;1.23;0.63;;;;;;;;;;5054692;28;20025;-41
2021/08/23 08:50:07;;;;;;;2.78;0.40;;;;;;;;;;5055777;28;20040;-42
2021/08/23 08:52:33;;;;;;;0.40;0.35;;;;;;;;;;5055777;28;20017;-41
2021/08/23 08:54:58;;;;;;;0.38;0.32;;;;;;;;;;5055562;28;20021;-41
2021/08/23 08:57:24;;;;;;;1.02;0.40;;;;;;;;;;5055532;28;20111;-41
2021/08/23 08:59:49;;;;;;;1.10;0.17;;;;;;;;;;5055491;28;20104;-41
2021/08/23 09:02:15;;;;;;;1.30;0.50;;;;;;;;;;5055409;28;20017;-41
2021/08/23 09:04:40;;;;;;;3.03;0.30;;;;;;;;;;5055462;28;20032;-41
2021/08/23 09:07:07;;;;;;;0.70;0.43;;;;;;;;;;5055353;28;20017;-41
2021/08/23 09:09:32;;;;;;;2.78;0.60;;;;;;;;;;5055452;28;20104;-42
2021/08/23 09:12:06;;;;;;;0.73;0.40;;;;;;;;;;5055608;28;20523;-41
2021/08/23 09:14:32;;;;;;;0.52;0.40;;;;;;;;;;5055208;28;20021;-42
2021/08/23 09:17:04;;;;;;;0.88;0.50;;;;;;;;;;5055053;28;20028;-42
2021/08/23 09:19:30;;;;;;;1.37;0.70;;;;;;;;;;5055202;28;20025;-42
2021/08/23 09:22:06;;;;;;;1.27;0.30;;;;;;;;;;5055073;28;20100;-42
2021/08/23 09:24:32;;;;;;;0.80;0.52;;;;;;;;;;5053677;28;20112;-42
2021/08/23 09:27:11;;;;;;;0.73;0.40;;;;;;;;;;5053697;28;20017;-42
2021/08/23 09:29:49;;;;;;;0.60;0.35;;;;;;;;;;5054875;28;20499;-41
2021/08/23 09:32:18;;;;;;;1.35;0.20;;;;;;;;;;5054898;28;20036;-41
2021/08/23 09:34:44;;;;;;;0.77;0.30;;;;;;;;;;5054712;28;20024;-42
2021/08/23 09:37:14;;;;;;;1.15;0.60;;;;;;;;;;5055049;28;20025;-41
2021/08/23 09:39:39;;;;;;;0.75;0.50;;;;;;;;;;5054644;28;20025;-41
2021/08/23 09:42:05;;;;;;;0.88;0.20;;;;;;;;;;5054683;28;20079;-42
2021/08/23 09:44:36;;;;;;;0.32;0.17;;;;;;;;;;5054256;28;20407;-41
2021/08/23 09:47:02;;;;;;;3.03;0.63;;;;;;;;;;5054924;28;20021;-41
2021/08/23 09:49:33;;;;;;;0.95;0.40;;;;;;;;;;5054192;28;20120;-42
2021/08/23 09:51:58;;;;;;;1.50;0.30;;;;;;;;;;5054502;28;20456;-41
2021/08/23 09:54:24;;;;;;;2.50;0.55;;;;;;;;;;5054409;28;20051;-41
2021/08/23 09:56:53;;;;;;;0.63;0.30;;;;;;;;;;5054414;28;20043;-41
2021/08/23 09:59:19;;;;;;;0.45;0.32;;;;;;;;;;5054309;28;20021;-41
2021/08/23 10:01:45;;;;;;;0.63;0.32;;;;;;;;;;5054565;28;20044;-42
2021/08/23 10:04:11;;;;;;;1.33;0.40;;;;;;;;;;5054248;28;20017;-41
2021/08/23 10:06:38;;;;;;;1.42;0.40;;;;;;;;;;5054069;28;20033;-41
2021/08/23 10:09:04;;;;;;;1.02;0.50;;;;;;;;;;5053289;28;20104;-41
2021/08/23 10:11:31;;;;;;;1.35;0.73;;;;;;;;;;5053884;28;20029;-42
2021/08/23 10:13:57;;;;;;;0.90;0.52;;;;;;;;;;5053987;28;20478;-42
2021/08/23 10:16:23;;;;;;;0.93;0.40;;;;;;;;;;5054147;28;20484;-41
2021/08/23 10:18:48;;;;;;;1.73;0.38;;;;;;;;;;5053912;28;20023;-42
2021/08/23 10:21:14;;;;;;;0.43;0.28;;;;;;;;;;5052637;28;20040;-41
2021/08/23 10:23:40;;;;;;;0.68;0.20;;;;;;;;;;5053870;28;20017;-42
2021/08/23 10:26:06;;;;;;;0.47;0.25;;;;;;;;;;5052544;28;20048;-42
2021/08/23 10:28:38;;;;;;;0.85;0.30;;;;;;;;;;5053340;28;20025;-42
2021/08/23 10:31:04;;;;;;;0.60;0.30;;;;;;;;;;5053809;28;20116;-42
2021/08/23 10:33:33;;;;;;;0.52;0.20;;;;;;;;;;5053938;28;20028;-42
2021/08/23 10:35:59;;;;;;;0.43;0.20;;;;;;;;;;5053654;28;20033;-41
2021/08/23 10:38:26;;;;;;;0.40;0.32;;;;;;;;;;5053843;28;20083;-41
2021/08/23 10:41:10;;;;;;;0.98;0.50;;;;;;;;;;5053480;28;20541;-42
2021/08/23 10:43:46;;;;;;;0.03;0.00;;;;;;;;;;5053248;28;20056;-42
2021/08/23 10:46:20;;;;;;;0.55;0.30;;;;;;;;;;5052231;28;20036;-41
2021/08/23 10:48:47;;;;;;;0.77;0.28;;;;;;;;;;5053435;28;20499;-41
2021/08/23 10:51:12;;;;;;;0.80;0.20;;;;;;;;;;5052179;28;20387;-42
2021/08/23 10:53:38;;;;;;;4.07;0.30;;;;;;;;;;5052055;28;20029;-41
2021/08/23 10:56:17;;;;;;;1.35;0.75;;;;;;;;;;5053361;28;20021;-42
2021/08/23 10:58:44;;;;;;;0.70;0.30;;;;;;;;;;5053522;28;20040;-42
2021/08/23 11:01:16;;;;;;;0.60;0.40;;;;;;;;;;5051087;28;20029;-42
2021/08/23 11:03:41;;;;;;;0.65;0.38;;;;;;;;;;5052986;28;20033;-41
2021/08/23 11:06:07;;;;;;;0.57;0.30;;;;;;;;;;5051867;28;20079;-42
2021/08/23 11:08:32;;;;;;;0.20;0.20;;;;;;;;;;5051849;28;20029;-41
2021/08/23 11:11:11;;;;;;;0.40;0.20;;;;;;;;;;5052781;28;20025;-42
2021/08/23 11:13:42;;;;;;;3.20;0.40;;;;;;;;;;5052861;28;20043;-42
2021/08/23 11:16:08;;;;;;;0.70;0.38;;;;;;;;;;5052964;28;20021;-41
2021/08/23 11:18:44;;;;;;;0.43;0.20;;;;;;;;;;5052875;28;20055;-42
2021/08/23 11:21:18;;;;;;;1.85;0.45;;;;;;;;;;5053156;28;20029;-41
2021/08/23 11:23:48;;;;;;;0.10;0.10;;;;;;;;;;5052708;28;20055;-41
2021/08/23 11:26:24;;;;;;;1.38;0.30;;;;;;;;;;5052698;28;20033;-41
2021/08/23 11:28:50;;;;;;;0.50;0.30;;;;;;;;;;5052654;28;20028;-41
2021/08/23 11:31:18;;;;;;;0.20;0.20;;;;;;;;;;5051392;28;20375;-41
2021/08/23 11:33:43;;;;;;;0.35;0.20;;;;;;;;;;5051373;28;20028;-42
2021/08/23 11:36:16;;;;;;;0.55;0.30;;;;;;;;;;5052908;28;20032;-41
2021/08/23 11:38:41;;;;;;;1.45;0.50;;;;;;;;;;5052477;28;20028;-41
2021/08/23 11:41:08;;;;;;;0.50;0.22;;;;;;;;;;5052822;28;20017;-42
2021/08/23 11:43:34;;;;;;;0.28;0.20;;;;;;;;;;5051256;28;20056;-41
2021/08/23 11:46:00;;;;;;;0.65;0.30;;;;;;;;;;5052487;28;20033;-42
2021/08/23 11:48:26;;;;;;;0.35;0.22;;;;;;;;;;5052292;28;20482;-41
2021/08/23 11:50:52;;;;;;;0.13;0.10;;;;;;;;;;5052175;28;20032;-41
2021/08/23 11:53:18;;;;;;;0.20;0.20;;;;;;;;;;5052223;28;20443;-41
2021/08/23 11:55:45;;;;;;;0.47;0.30;;;;;;;;;;5052274;28;20025;-41
2021/08/23 11:58:15;;;;;;;0.20;0.15;;;;;;;;;;5052404;28;20036;-41
2021/08/23 12:00:41;;;;;;;0.25;0.25;;;;;;;;;;5051730;28;20048;-42
2021/08/23 12:03:10;;;;;;;0.22;0.22;;;;;;;;;;5052564;28;20029;-41
2021/08/23 12:05:45;;;;;;;0.20;0.20;;;;;;;;;;5052043;28;20044;-41
2021/08/23 12:08:22;;;;;;;0.00;0.00;;;;;;;;;;5051410;28;20029;-42
2021/08/23 12:10:54;;;;;;;1.42;0.28;;;;;;;;;;5052010;28;20677;-41
2021/08/23 12:13:21;;;;;;;0.20;0.20;;;;;;;;;;5054559;28;20033;-42
2021/08/23 12:15:55;;;;;;;0.57;0.28;;;;;;;;;;5056549;28;20400;-42
2021/08/23 12:18:29;;;;;;;0.85;0.30;;;;;;;;;;5055012;28;20426;-42
2021/08/23 12:21:02;;;;;;;0.30;0.20;;;;;;;;;;5056348;28;20361;-42
2021/08/23 12:23:27;;;;;;;0.20;0.20;;;;;;;;;;5056266;28;20029;-41
2021/08/23 12:26:03;;;;;;;0.40;0.20;;;;;;;;;;5056025;28;20090;-42
2021/08/23 12:28:29;;;;;;;0.03;0.03;;;;;;;;;;5056155;28;20503;-41
2021/08/23 12:31:03;;;;;;;0.45;0.20;;;;;;;;;;5056050;28;20021;-42
2021/08/23 12:33:28;;;;;;;1.17;0.20;;;;;;;;;;5056033;28;20025;-41
2021/08/23 12:35:54;;;;;;;0.20;0.20;;;;;;;;;;5055881;28;20024;-41
2021/08/23 12:38:19;;;;;;;0.22;0.20;;;;;;;;;;5054958;28;20025;-41
2021/08/23 12:40:45;;;;;;;0.25;0.17;;;;;;;;;;5054945;28;20493;-42
2021/08/23 12:43:11;;;;;;;0.43;0.40;;;;;;;;;;5055507;28;20064;-42
2021/08/23 12:45:37;;;;;;;0.57;0.30;;;;;;;;;;5054764;28;20041;-42
2021/08/23 12:48:03;;;;;;;2.90;0.38;;;;;;;;;;5054671;28;20029;-41
2021/08/23 12:50:29;;;;;;;1.00;0.40;;;;;;;;;;5055677;28;20021;-42
2021/08/23 12:52:54;;;;;;;0.40;0.40;;;;;;;;;;5055573;28;20021;-41
2021/08/23 12:55:20;;;;;;;0.13;0.13;;;;;;;;;;5055867;28;20371;-41
2021/08/23 12:57:45;;;;;;;0.55;0.20;;;;;;;;;;5055762;28;20494;-41
2021/08/23 13:00:12;;;;;;;0.13;0.10;;;;;;;;;;5054420;28;20475;-42
2021/08/23 13:02:38;;;;;;;0.30;0.30;;;;;;;;;;5055629;28;20025;-41
2021/08/23 13:05:04;;;;;;;0.30;0.20;;;;;;;;;;5037468;28;20033;-41
2021/08/23 13:07:30;;;;;;;0.20;0.20;;;;;;;;;;5055406;28;20025;-42
2021/08/23 13:09:56;;;;;;;0.30;0.25;;;;;;;;;;5055210;28;20024;-41
2021/08/23 13:12:21;;;;;;;0.60;0.38;;;;;;;;;;5055328;28;20029;-42
2021/08/23 13:14:46;;;;;;;0.57;0.30;;;;;;;;;;5055474;28;20017;-42
2021/08/23 13:17:13;;;;;;;1.00;0.47;;;;;;;;;;5053983;28;20033;-43
2021/08/23 13:19:38;;;;;;;0.43;0.15;;;;;;;;;;5055111;28;20040;-42
2021/08/23 13:22:04;;;;;;;0.98;0.32;;;;;;;;;;5055041;28;20463;-42
2021/08/23 13:24:29;;;;;;;0.45;0.45;;;;;;;;;;5053904;28;20485;-43
2021/08/23 13:26:55;;;;;;;0.70;0.47;;;;;;;;;;5054956;28;20029;-43
2021/08/23 13:29:20;;;;;;;1.50;0.20;;;;;;;;;;5055015;28;20024;-42
2021/08/23 13:31:46;;;;;;;3.38;0.30;;;;;;;;;;5055099;28;20025;-42
2021/08/23 13:34:11;;;;;;;0.57;0.45;;;;;;;;;;5053576;28;20019;-43
2021/08/23 13:36:37;;;;;;;0.60;0.30;;;;;;;;;;5054812;28;20032;-43
2021/08/23 13:39:02;;;;;;;0.40;0.22;;;;;;;;;;5054764;28;20442;-43
2021/08/23 13:41:28;;;;;;;0.20;0.20;;;;;;;;;;5054852;28;20025;-42
2021/08/23 13:43:54;;;;;;;0.60;0.28;;;;;;;;;;5054506;28;20415;-43
2021/08/23 13:46:19;;;;;;;1.10;0.35;;;;;;;;;;5054560;28;20041;-43
2021/08/23 13:48:45;;;;;;;0.50;0.30;;;;;;;;;;5054520;28;20096;-42
2021/08/23 13:51:11;;;;;;;1.20;0.40;;;;;;;;;;5054681;28;20029;-42
2021/08/23 13:53:36;;;;;;;0.57;0.30;;;;;;;;;;5054261;28;20017;-42
2021/08/23 13:56:02;;;;;;;1.10;0.40;;;;;;;;;;5054479;28;20025;-42
2021/08/23 13:58:27;;;;;;;0.30;0.30;;;;;;;;;;5054468;28;20021;-42
2021/08/23 14:00:53;;;;;;;0.20;0.20;;;;;;;;;;5053055;28;20396;-42
2021/08/23 14:03:18;;;;;;;0.70;0.43;;;;;;;;;;5054360;28;20017;-42
2021/08/23 14:05:43;;;;;;;2.63;0.50;;;;;;;;;;5052926;28;20410;-42
2021/08/23 14:08:09;;;;;;;0.50;0.32;;;;;;;;;;5054216;28;20017;-43
2021/08/23 14:10:34;;;;;;;0.82;0.40;;;;;;;;;;5054090;28;20044;-42
2021/08/23 14:13:00;;;;;;;0.90;0.40;;;;;;;;;;5052914;28;20021;-42
2021/08/23 14:15:25;;;;;;;1.08;0.30;;;;;;;;;;5054317;28;20037;-42
2021/08/23 14:17:50;;;;;;;0.60;0.47;;;;;;;;;;5054039;28;20096;-42
2021/08/23 14:20:16;;;;;;;0.95;0.50;;;;;;;;;;5052789;28;20143;-42
2021/08/23 14:22:42;;;;;;;1.50;0.50;;;;;;;;;;5053804;28;20021;-42
2021/08/23 14:25:07;;;;;;;1.70;0.47;;;;;;;;;;5053896;28;20078;-42
2021/08/23 14:27:33;;;;;;;1.73;0.30;;;;;;;;;;5054002;28;20468;-42
2021/08/23 14:29:58;;;;;;;0.60;0.50;;;;;;;;;;5052424;28;20031;-42
2021/08/23 14:32:24;;;;;;;1.13;0.60;;;;;;;;;;5053785;28;20009;-42
2021/08/23 14:34:49;;;;;;;0.95;0.40;;;;;;;;;;5053709;28;20040;-42
2021/08/23 14:37:15;;;;;;;1.98;0.43;;;;;;;;;;5053507;28;20024;-42
2021/08/23 14:39:40;;;;;;;2.45;0.68;;;;;;;;;;5052779;28;20106;-42
2021/08/23 14:42:05;;;;;;;0.65;0.43;;;;;;;;;;5035652;28;20017;-42